Time;durP1;ratioP1;P1;durP2;ratioP2;P2;SDS_P1;SDS_P2;PMS_P1;PMS_P2;Temp;Humidity;BMP_temperature;BMP_pressure;BME280_temperature;BME280_humidity;BME280_pressure;Samples;Min_cycle;Max_cycle;Signal;HPM_P1;HPM_P2
2022/03/20 00:00:04;;;;;;;17.35;9.15;;;2.30;48.50;;;;;;5093408;28;20150;-72
2022/03/20 00:02:32;;;;;;;11.90;7.20;;;2.40;48.80;;;;;;5094011;28;20031;-73
2022/03/20 00:05:00;;;;;;;17.27;9.23;;;2.30;48.90;;;;;;5093631;28;20019;-72
2022/03/20 00:07:27;;;;;;;13.40;8.32;;;2.30;49.00;;;;;;5093871;28;20567;-73
2022/03/20 00:09:53;;;;;;;13.73;8.02;;;2.30;49.20;;;;;;5093717;28;20393;-74
2022/03/20 00:12:18;;;;;;;15.10;7.90;;;2.30;49.40;;;;;;5093675;28;20024;-74
2022/03/20 00:14:45;;;;;;;14.77;7.97;;;2.30;49.50;;;;;;5093651;28;20059;-74
2022/03/20 00:17:12;;;;;;;16.67;7.72;;;2.30;49.60;;;;;;5093534;28;20114;-74
2022/03/20 00:19:37;;;;;;;19.77;8.57;;;2.30;49.60;;;;;;5075722;28;20115;-73
2022/03/20 00:22:04;;;;;;;12.63;7.40;;;2.30;49.70;;;;;;5093524;28;20108;-73
2022/03/20 00:24:30;;;;;;;17.17;8.85;;;2.30;49.90;;;;;;5092518;28;20020;-74
2022/03/20 00:27:00;;;;;;;14.75;9.30;;;2.40;49.80;;;;;;5093368;28;20024;-74
2022/03/20 00:29:27;;;;;;;16.90;8.75;;;2.30;49.90;;;;;;5093477;28;20044;-73
2022/03/20 00:31:53;;;;;;;19.45;8.98;;;2.30;49.90;;;;;;5093390;28;20059;-74
2022/03/20 00:34:19;;;;;;;18.58;10.48;;;2.30;50.70;;;;;;5075328;28;20086;-74
2022/03/20 00:36:45;;;;;;;13.93;8.13;;;2.30;50.30;;;;;;5093124;28;20057;-75
2022/03/20 00:39:11;;;;;;;12.70;7.60;;;2.20;50.40;;;;;;5074919;28;20028;-74
2022/03/20 00:41:37;;;;;;;16.25;9.63;;;2.20;50.60;;;;;;5093106;28;20050;-73
2022/03/20 00:44:03;;;;;;;13.30;8.63;;;2.10;50.80;;;;;;5093008;28;20021;-74
2022/03/20 00:46:29;;;;;;;15.50;10.00;;;2.10;50.80;;;;;;5093008;28;20024;-73
2022/03/20 00:48:55;;;;;;;15.85;8.77;;;2.10;51.00;;;;;;5093022;28;20020;-73
2022/03/20 00:51:21;;;;;;;15.85;9.15;;;2.00;51.20;;;;;;5093169;28;20043;-74
2022/03/20 00:53:46;;;;;;;18.27;9.57;;;2.00;51.30;;;;;;5094164;28;20442;-74
2022/03/20 00:56:14;;;;;;;17.60;9.55;;;2.00;51.40;;;;;;5093820;28;20073;-73
2022/03/20 00:58:39;;;;;;;17.50;9.43;;;2.00;51.50;;;;;;5092888;28;20492;-74
2022/03/20 01:01:05;;;;;;;15.10;9.30;;;2.00;51.50;;;;;;5093010;28;20036;-73
2022/03/20 01:03:31;;;;;;;13.68;8.38;;;2.00;51.70;;;;;;5092701;28;20099;-72
2022/03/20 01:05:57;;;;;;;11.02;7.45;;;2.00;51.70;;;;;;5072603;28;20115;-74
2022/03/20 01:08:24;;;;;;;17.85;8.75;;;2.00;51.90;;;;;;5092538;28;20030;-73
2022/03/20 01:10:50;;;;;;;12.55;9.27;;;2.00;52.10;;;;;;5092518;28;20024;-73
2022/03/20 01:13:16;;;;;;;15.63;8.13;;;1.90;52.20;;;;;;5092426;28;20016;-73
2022/03/20 01:15:42;;;;;;;14.32;8.82;;;1.90;52.20;;;;;;5092289;28;20056;-73
2022/03/20 01:18:08;;;;;;;15.38;9.43;;;1.90;52.30;;;;;;5092472;28;20485;-74
2022/03/20 01:20:34;;;;;;;14.65;9.07;;;1.80;52.50;;;;;;5092474;28;20032;-73
2022/03/20 01:23:00;;;;;;;13.00;8.23;;;1.80;52.60;;;;;;5074185;28;20350;-73
2022/03/20 01:25:26;;;;;;;13.93;8.65;;;1.70;52.70;;;;;;5092283;28;20036;-74
2022/03/20 01:27:51;;;;;;;17.67;9.75;;;1.70;52.80;;;;;;5090757;28;20020;-74
2022/03/20 01:30:17;;;;;;;15.77;9.00;;;1.70;53.00;;;;;;5092281;28;20118;-72
2022/03/20 01:32:43;;;;;;;12.75;8.75;;;1.70;53.10;;;;;;5092242;28;20091;-72
2022/03/20 01:35:12;;;;;;;16.45;8.73;;;1.70;53.20;;;;;;5092043;28;20039;-72
2022/03/20 01:37:41;;;;;;;10.70;8.65;;;1.70;53.40;;;;;;5092228;28;20039;-73
2022/03/20 01:40:08;;;;;;;18.42;10.35;;;1.70;53.50;;;;;;5074346;28;20550;-73
2022/03/20 01:42:34;;;;;;;19.37;10.83;;;1.60;53.60;;;;;;5092079;28;20504;-74
2022/03/20 01:44:59;;;;;;;15.82;8.68;;;1.60;53.70;;;;;;5092786;28;20020;-72
2022/03/20 01:47:25;;;;;;;15.38;7.97;;;1.60;53.90;;;;;;5074493;28;20028;-74
2022/03/20 01:49:51;;;;;;;15.90;9.18;;;1.60;54.20;;;;;;5092058;28;20022;-73
2022/03/20 01:52:24;;;;;;;19.52;10.25;;;1.50;54.30;;;;;;5073762;28;20032;-72
2022/03/20 01:54:51;;;;;;;16.63;9.25;;;1.50;54.50;;;;;;5091950;28;20047;-72
2022/03/20 01:57:22;;;;;;;14.80;8.52;;;1.50;54.60;;;;;;5091969;28;20032;-73
2022/03/20 01:59:49;;;;;;;14.82;8.75;;;1.40;54.70;;;;;;5092256;28;20028;-74
2022/03/20 02:02:16;;;;;;;16.35;8.85;;;1.40;55.00;;;;;;5091603;28;20059;-73
2022/03/20 02:04:42;;;;;;;14.45;8.82;;;1.40;55.10;;;;;;5091726;28;20031;-74
2022/03/20 02:07:08;;;;;;;15.50;9.13;;;1.40;55.20;;;;;;5091938;28;20040;-73
2022/03/20 02:09:40;;;;;;;14.80;8.90;;;1.40;55.60;;;;;;5091739;28;20024;-73
2022/03/20 02:12:06;;;;;;;16.98;8.88;;;1.40;55.60;;;;;;5091799;28;20408;-74
2022/03/20 02:14:33;;;;;;;14.25;9.27;;;1.40;55.70;;;;;;5091716;28;20056;-73
2022/03/20 02:17:00;;;;;;;20.65;10.50;;;1.40;55.80;;;;;;5091626;28;20051;-74
2022/03/20 02:19:27;;;;;;;20.60;9.68;;;1.40;55.80;;;;;;5091541;28;20024;-72
2022/03/20 02:21:53;;;;;;;15.32;9.82;;;1.40;56.00;;;;;;5091823;28;20388;-74
2022/03/20 02:24:41;;;;;;;17.25;11.25;;;1.40;56.10;;;;;;5091905;28;20020;-74
2022/03/20 02:27:15;;;;;;;15.40;9.90;;;1.40;56.50;;;;;;5073921;28;20073;-74
2022/03/20 02:29:41;;;;;;;15.75;9.38;;;1.30;56.50;;;;;;5091763;28;20054;-74
2022/03/20 02:32:09;;;;;;;16.42;9.98;;;1.30;56.70;;;;;;5091691;28;20056;-73
2022/03/20 02:34:36;;;;;;;14.20;10.55;;;1.30;56.80;;;;;;5073715;28;20024;-73
2022/03/20 02:37:02;;;;;;;14.05;9.18;;;1.20;57.00;;;;;;5091337;28;20127;-75
2022/03/20 02:39:29;;;;;;;19.30;9.52;;;1.20;57.10;;;;;;5073476;28;20024;-74
2022/03/20 02:41:57;;;;;;;15.65;9.40;;;1.20;57.30;;;;;;5091532;28;20024;-74
2022/03/20 02:44:49;;;;;;;14.65;9.13;;;1.20;57.30;;;;;;5091522;28;20097;-73
2022/03/20 02:47:20;;;;;;;14.48;9.43;;;1.10;57.50;;;;;;5093220;28;20020;-73
2022/03/20 02:49:49;;;;;;;15.60;9.15;;;1.10;57.50;;;;;;5095270;28;20020;-74
2022/03/20 02:52:15;;;;;;;19.42;9.38;;;1.10;58.40;;;;;;5095240;28;20385;-73
2022/03/20 02:54:42;;;;;;;16.10;9.05;;;1.10;58.00;;;;;;5095269;28;20024;-74
2022/03/20 02:57:08;;;;;;;17.17;9.80;;;1.10;58.20;;;;;;5095208;28;20043;-75
2022/03/20 02:59:34;;;;;;;15.93;10.95;;;1.10;58.40;;;;;;5076871;28;20024;-73
2022/03/20 03:02:02;;;;;;;20.08;10.70;;;1.00;58.50;;;;;;5095147;28;20443;-72
2022/03/20 03:04:28;;;;;;;15.73;9.55;;;1.00;58.80;;;;;;5076237;28;20032;-74
2022/03/20 03:06:53;;;;;;;17.00;10.70;;;1.00;58.80;;;;;;5094732;28;20036;-73
2022/03/20 03:12:04;;;;;;;18.00;11.15;;;1.00;59.10;;;;;;5094911;28;20127;-74
2022/03/20 03:17:27;;;;;;;13.77;9.77;;;1.00;59.40;;;;;;5094801;28;20116;-73
2022/03/20 03:19:54;;;;;;;18.23;11.30;;;1.00;60.30;;;;;;5094768;28;20028;-73
2022/03/20 03:22:20;;;;;;;20.90;9.45;;;1.00;59.90;;;;;;5094848;28;20137;-73
2022/03/20 03:24:46;;;;;;;16.27;11.23;;;1.00;60.00;;;;;;5094794;28;20435;-74
2022/03/20 03:27:12;;;;;;;16.33;9.65;;;1.00;60.90;;;;;;5095309;28;20108;-73
2022/03/20 03:29:37;;;;;;;13.88;8.85;;;1.00;60.40;;;;;;5095046;28;20028;-72
2022/03/20 03:32:05;;;;;;;16.63;10.05;;;1.00;60.50;;;;;;5076257;28;20027;-73
2022/03/20 03:37:20;;;;;;;15.52;10.40;;;1.00;60.90;;;;;;5094495;28;20047;-74
2022/03/20 03:39:49;;;;;;;20.80;12.52;;;1.00;61.00;;;;;;5094538;28;20020;-73
2022/03/20 03:42:15;;;;;;;18.33;10.30;;;1.00;61.30;;;;;;5094130;28;20393;-73
2022/03/20 03:44:41;;;;;;;16.30;10.38;;;1.00;61.40;;;;;;5094176;28;20020;-72
2022/03/20 03:47:07;;;;;;;15.40;8.98;;;0.90;61.50;;;;;;5094110;28;20031;-73
2022/03/20 03:49:34;;;;;;;16.40;10.05;;;0.90;61.50;;;;;;5085737;28;20024;-73
2022/03/20 03:52:01;;;;;;;17.90;10.15;;;1.00;61.70;;;;;;5094045;28;20024;-73
2022/03/20 03:54:32;;;;;;;18.17;9.73;;;0.90;61.90;;;;;;5093935;28;20154;-74
2022/03/20 03:56:58;;;;;;;20.20;12.02;;;0.90;62.10;;;;;;5093839;28;20040;-73
2022/03/20 03:59:24;;;;;;;18.00;9.70;;;0.90;62.20;;;;;;5074455;28;20019;-74
2022/03/20 04:01:50;;;;;;;17.52;9.00;;;0.90;62.40;;;;;;5093814;28;20024;-73
2022/03/20 04:04:16;;;;;;;18.05;9.85;;;0.90;62.40;;;;;;5075354;28;20093;-73
2022/03/20 04:06:42;;;;;;;20.77;9.88;;;1.00;63.00;;;;;;5075445;28;20040;-72
2022/03/20 04:09:07;;;;;;;16.50;9.45;;;1.00;63.00;;;;;;5075654;28;20052;-72
2022/03/20 04:11:33;;;;;;;15.18;10.10;;;1.10;63.20;;;;;;5093819;28;20435;-73
2022/03/20 04:13:59;;;;;;;15.07;9.25;;;1.20;63.60;;;;;;5093638;28;20110;-74
2022/03/20 04:16:25;;;;;;;18.17;10.23;;;1.30;63.60;;;;;;5093848;28;20062;-72
2022/03/20 04:18:50;;;;;;;17.80;10.23;;;1.50;63.40;;;;;;5075553;28;20086;-75
2022/03/20 04:21:17;;;;;;;18.20;11.05;;;1.70;63.30;;;;;;5093418;28;20035;-73
2022/03/20 04:23:46;;;;;;;17.20;11.05;;;2.00;63.10;;;;;;5093619;28;20023;-73
2022/03/20 04:26:17;;;;;;;19.92;11.32;;;2.30;62.50;;;;;;5093852;28;20542;-73
2022/03/20 04:28:47;;;;;;;16.40;10.10;;;2.60;61.80;;;;;;5093603;28;20064;-74
2022/03/20 04:31:17;;;;;;;16.60;10.63;;;2.80;60.90;;;;;;5093289;28;20020;-74
2022/03/20 04:33:48;;;;;;;13.70;9.90;;;2.70;60.20;;;;;;5093284;28;20031;-74
2022/03/20 04:36:14;;;;;;;19.10;12.32;;;2.50;61.10;;;;;;5093110;28;20075;-73
2022/03/20 04:38:40;;;;;;;16.88;11.50;;;2.30;61.30;;;;;;5093104;28;20385;-73
2022/03/20 04:41:06;;;;;;;21.00;10.23;;;2.10;61.70;;;;;;5092953;28;20032;-73
2022/03/20 04:43:32;;;;;;;18.20;10.95;;;2.00;62.20;;;;;;5093296;28;20024;-73
2022/03/20 04:45:59;;;;;;;17.17;10.52;;;1.90;62.60;;;;;;5074098;28;20118;-73
2022/03/20 04:59:22;;;;;;;18.58;11.70;;;1.70;64.30;;;;;;5092870;28;20049;-72
2022/03/20 05:01:48;;;;;;;19.17;11.68;;;1.70;64.40;;;;;;5093010;28;20028;-73
2022/03/20 05:04:14;;;;;;;17.98;11.38;;;1.70;64.90;;;;;;5092573;28;20362;-74
2022/03/20 05:06:42;;;;;;;18.60;12.60;;;1.70;65.10;;;;;;5091349;28;20539;-74
2022/03/20 05:14:36;;;;;;;19.00;11.40;;;1.80;65.70;;;;;;5092718;28;20071;-74
2022/03/20 05:17:09;;;;;;;22.02;12.65;;;1.80;65.90;;;;;;5092499;28;20024;-75
2022/03/20 05:19:36;;;;;;;20.20;13.10;;;1.80;66.10;;;;;;5092323;28;20499;-75
2022/03/20 05:22:06;;;;;;;25.55;11.93;;;1.80;66.30;;;;;;5092362;28;20024;-73
2022/03/20 05:24:35;;;;;;;15.20;11.68;;;1.80;66.20;;;;;;5092290;28;20028;-75
2022/03/20 05:27:02;;;;;;;21.25;11.20;;;1.90;66.40;;;;;;5092332;28;20047;-74
2022/03/20 05:29:27;;;;;;;15.77;10.47;;;1.90;66.40;;;;;;5092281;28;20019;-74
2022/03/20 05:31:53;;;;;;;15.60;11.10;;;1.90;66.70;;;;;;5092246;28;20550;-75
2022/03/20 05:34:20;;;;;;;22.77;11.55;;;2.00;66.90;;;;;;5092177;28;20035;-73
2022/03/20 05:36:46;;;;;;;17.92;11.68;;;2.10;67.00;;;;;;5092290;28;20104;-75
2022/03/20 05:39:12;;;;;;;18.20;11.82;;;2.10;67.10;;;;;;5092165;28;20036;-75
2022/03/20 05:41:49;;;;;;;21.92;12.52;;;2.10;67.10;;;;;;5092054;28;20116;-75
2022/03/20 05:44:17;;;;;;;21.00;12.07;;;2.20;67.20;;;;;;5092028;28;20020;-76
2022/03/20 05:46:46;;;;;;;21.02;10.32;;;2.20;67.20;;;;;;5091433;28;20050;-74
2022/03/20 05:49:12;;;;;;;20.65;10.80;;;2.30;67.30;;;;;;5091849;28;20099;-76
2022/03/20 05:51:38;;;;;;;15.55;9.93;;;2.30;67.40;;;;;;5055627;28;20110;-74
2022/03/20 05:54:05;;;;;;;16.05;10.85;;;2.40;67.60;;;;;;5071600;28;20084;-75
2022/03/20 05:59:18;;;;;;;15.15;10.27;;;2.50;67.50;;;;;;5091751;28;20039;-74
2022/03/20 06:01:44;;;;;;;24.70;12.02;;;2.60;67.50;;;;;;5055007;28;20119;-75
2022/03/20 06:04:10;;;;;;;17.83;10.80;;;2.60;67.40;;;;;;5089720;28;20034;-74
2022/03/20 06:06:37;;;;;;;16.60;9.98;;;2.60;67.40;;;;;;5091690;28;20036;-75
2022/03/20 06:09:06;;;;;;;13.40;9.52;;;2.70;67.50;;;;;;5073944;28;20028;-73
2022/03/20 06:11:35;;;;;;;18.83;11.68;;;2.70;67.60;;;;;;5091756;28;20089;-75
2022/03/20 06:14:04;;;;;;;16.50;10.32;;;2.70;67.60;;;;;;5091570;28;20044;-74
2022/03/20 06:16:37;;;;;;;15.98;8.73;;;2.70;67.80;;;;;;5091727;28;20027;-75
2022/03/20 06:19:08;;;;;;;15.98;9.85;;;2.80;67.80;;;;;;5070204;28;20094;-75
2022/03/20 06:21:34;;;;;;;15.45;8.85;;;2.90;67.70;;;;;;5072683;28;20424;-75
2022/03/20 06:24:00;;;;;;;23.50;11.40;;;2.90;67.70;;;;;;5057627;28;20477;-75
2022/03/20 06:26:25;;;;;;;14.20;9.77;;;2.90;67.80;;;;;;5075271;28;20039;-76
2022/03/20 06:28:52;;;;;;;17.52;10.35;;;2.90;67.80;;;;;;5057344;28;20039;-75
2022/03/20 06:31:19;;;;;;;;;;;3.00;67.90;;;;;;5057791;28;20385;-74
2022/03/20 06:33:46;;;;;;;18.85;9.20;;;3.10;67.70;;;;;;5057750;28;20371;-76
2022/03/20 06:36:13;;;;;;;19.92;9.75;;;3.00;68.00;;;;;;5075221;28;20069;-74
2022/03/20 06:38:40;;;;;;;16.38;10.10;;;3.10;68.20;;;;;;5075692;28;20419;-74
2022/03/20 06:41:07;;;;;;;16.67;11.00;;;3.20;68.30;;;;;;5057720;28;20048;-74
2022/03/20 06:43:37;;;;;;;17.08;9.98;;;3.20;68.20;;;;;;5075098;28;20434;-75
2022/03/20 06:46:05;;;;;;;14.65;8.98;;;3.30;68.20;;;;;;5074728;28;20103;-74
2022/03/20 06:48:31;;;;;;;15.32;10.05;;;3.40;68.00;;;;;;5056995;28;20029;-75
2022/03/20 06:50:57;;;;;;;19.45;10.57;;;3.50;67.90;;;;;;5074920;28;20064;-75
2022/03/20 06:53:23;;;;;;;16.13;10.32;;;3.50;67.80;;;;;;5074904;28;20107;-74
2022/03/20 06:55:49;;;;;;;12.70;8.48;;;3.50;67.60;;;;;;5082720;28;20016;-75
2022/03/20 06:58:17;;;;;;;16.77;10.27;;;3.60;67.50;;;;;;5094795;28;20469;-75
2022/03/20 07:00:44;;;;;;;19.83;10.48;;;3.70;67.40;;;;;;5094463;28;20362;-74
2022/03/20 07:03:10;;;;;;;19.88;11.02;;;3.70;67.70;;;;;;5094025;28;20366;-75
2022/03/20 07:05:36;;;;;;;18.63;10.02;;;3.70;68.00;;;;;;5094170;28;20042;-74
2022/03/20 07:08:04;;;;;;;16.92;10.85;;;3.80;68.20;;;;;;5092721;28;20382;-76
2022/03/20 07:10:30;;;;;;;;;;;3.80;68.10;;;;;;5094506;28;20019;-74
2022/03/20 07:15:44;;;;;;;17.98;13.13;;;4.00;67.30;;;;;;5093901;28;20568;-74
2022/03/20 07:18:12;;;;;;;16.55;9.02;;;4.10;67.30;;;;;;5092458;28;20071;-76
2022/03/20 07:20:39;;;;;;;13.82;9.50;;;4.20;67.10;;;;;;5094360;28;20032;-75
2022/03/20 07:23:11;;;;;;;13.57;9.55;;;4.30;67.10;;;;;;5094974;28;20024;-76
2022/03/20 07:31:08;;;;;;;18.55;9.95;;;5.50;67.20;;;;;;5094708;28;20043;-75
2022/03/20 07:33:34;;;;;;;18.33;10.70;;;7.80;63.60;;;;;;5076084;28;20396;-74
2022/03/20 07:36:04;;;;;;;15.45;10.20;;;10.00;57.50;;;;;;5082520;28;20105;-74
2022/03/20 07:38:30;;;;;;;16.88;10.73;;;12.00;52.20;;;;;;5074189;28;20103;-75
2022/03/20 07:40:56;;;;;;;12.65;9.57;;;13.60;48.30;;;;;;5074053;28;20040;-75
2022/03/20 07:43:21;;;;;;;13.82;9.65;;;14.60;44.70;;;;;;5074142;28;20035;-75
2022/03/20 07:45:47;;;;;;;15.15;9.55;;;14.90;42.90;;;;;;5073816;28;20386;-76
2022/03/20 07:48:13;;;;;;;13.48;8.75;;;15.60;42.00;;;;;;5073824;28;20040;-78
2022/03/20 07:50:42;;;;;;;12.30;9.55;;;16.10;41.20;;;;;;5080720;28;20449;-79
2022/03/20 07:53:11;;;;;;;11.48;9.18;;;17.00;38.80;;;;;;5094360;28;20024;-78
2022/03/20 07:55:37;;;;;;;12.85;9.20;;;17.10;38.00;;;;;;5096630;28;20446;-80
2022/03/20 07:58:03;;;;;;;10.50;8.82;;;17.50;37.60;;;;;;5095263;28;20115;-78
2022/03/20 08:00:28;;;;;;;14.10;8.48;;;18.10;36.80;;;;;;5094091;28;20103;-80
2022/03/20 08:02:54;;;;;;;11.68;9.07;;;18.80;35.90;;;;;;5094017;28;20024;-78
2022/03/20 08:05:20;;;;;;;12.77;9.07;;;19.40;34.90;;;;;;5092882;28;20027;-81
2022/03/20 08:07:46;;;;;;;12.23;9.32;;;20.00;34.20;;;;;;5093450;28;20032;-77
2022/03/20 08:10:13;;;;;;;14.18;9.70;;;20.80;33.30;;;;;;5075820;28;20498;-79
2022/03/20 08:12:40;;;;;;;12.18;8.50;;;21.30;32.00;;;;;;5094848;28;20095;-78
2022/03/20 08:15:07;;;;;;;8.87;7.97;;;21.60;31.50;;;;;;5097244;28;20051;-80
2022/03/20 08:17:41;;;;;;;;;;;21.80;30.90;;;;;;5098329;28;20285;-82
2022/03/20 08:20:07;;;;;;;9.82;8.70;;;21.80;32.60;;;;;;5076589;28;19919;-80
2022/03/20 08:22:33;;;;;;;11.50;8.20;;;21.50;30.70;;;;;;5073975;28;20059;-79
2022/03/20 08:24:59;;;;;;;10.70;7.53;;;21.50;30.90;;;;;;5075096;28;20052;-76
2022/03/20 08:27:25;;;;;;;12.07;8.23;;;21.90;30.40;;;;;;5072306;28;20031;-78
2022/03/20 08:29:51;;;;;;;14.20;8.15;;;21.40;30.30;;;;;;5092919;28;20032;-78
2022/03/20 08:32:19;;;;;;;10.15;7.88;;;21.30;30.70;;;;;;5092953;28;20028;-77
2022/03/20 08:34:44;;;;;;;;;;;21.70;30.30;;;;;;5093746;28;20024;-78
2022/03/20 08:37:10;;;;;;;10.55;7.32;;;22.10;31.20;;;;;;5074637;28;20285;-77
2022/03/20 08:39:36;;;;;;;11.27;7.70;;;22.00;29.70;;;;;;5092712;28;20089;-77
2022/03/20 08:42:02;;;;;;;12.32;7.28;;;22.00;29.70;;;;;;5094467;28;20519;-82
2022/03/20 08:44:28;;;;;;;15.18;7.68;;;22.30;29.70;;;;;;5091697;28;20127;-83
2022/03/20 08:46:54;;;;;;;8.55;6.78;;;23.00;29.10;;;;;;5094036;28;20050;-83
2022/03/20 08:49:19;;;;;;;9.60;7.05;;;23.10;28.50;;;;;;5095091;28;20103;-84
2022/03/20 08:51:46;;;;;;;8.02;6.20;;;23.20;28.50;;;;;;5095300;28;20034;-81
2022/03/20 08:54:11;;;;;;;9.13;6.13;;;22.90;28.30;;;;;;5095204;28;20055;-84
2022/03/20 08:56:38;;;;;;;9.55;5.97;;;23.00;28.20;;;;;;5072769;28;20067;-82
2022/03/20 08:59:06;;;;;;;8.77;6.65;;;23.40;27.70;;;;;;5096992;28;20389;-88
2022/03/20 09:01:32;;;;;;;11.88;5.97;;;23.00;27.80;;;;;;5062206;28;20037;-83
2022/03/20 09:03:58;;;;;;;7.40;5.97;;;22.30;28.60;;;;;;5091509;28;20038;-80
2022/03/20 09:06:24;;;;;;;10.75;6.28;;;22.70;28.40;;;;;;5097067;28;20085;-84
2022/03/20 09:08:51;;;;;;;8.30;5.88;;;23.20;27.80;;;;;;5094054;28;20028;-81
2022/03/20 09:11:17;;;;;;;;;;;23.20;27.60;;;;;;5095714;28;20080;-80
2022/03/20 09:13:43;;;;;;;6.40;5.63;;;22.90;28.40;;;;;;5091925;28;19934;-80
2022/03/20 09:19:00;;;;;;;10.32;5.75;;;22.40;27.80;;;;;;5091377;28;20043;-81
2022/03/20 09:21:34;;;;;;;8.43;5.63;;;22.10;28.20;;;;;;5073580;28;20074;-81
2022/03/20 09:24:01;;;;;;;9.55;5.55;;;22.70;27.80;;;;;;5091303;28;20454;-82
2022/03/20 09:26:27;;;;;;;10.15;5.55;;;23.30;27.40;;;;;;5091042;28;20059;-81
2022/03/20 09:28:54;;;;;;;7.47;5.20;;;23.60;26.70;;;;;;5080203;28;20028;-81
2022/03/20 09:31:20;;;;;;;8.38;5.20;;;23.60;26.60;;;;;;5092086;28;20020;-81
2022/03/20 09:34:04;;;;;;;9.27;6.07;;;23.50;26.40;;;;;;5086272;28;20483;-80
2022/03/20 09:36:30;;;;;;;9.65;5.55;;;23.60;26.40;;;;;;5092283;28;20115;-81
2022/03/20 09:38:56;;;;;;;6.72;5.43;;;23.50;26.70;;;;;;5091379;28;20076;-83
2022/03/20 09:41:33;;;;;;;9.90;5.30;;;24.10;26.00;;;;;;5094281;28;20032;-87
2022/03/20 09:44:03;;;;;;;6.65;5.03;;;24.30;25.80;;;;;;5094201;28;20024;-87
2022/03/20 09:46:31;;;;;;;7.70;4.65;;;24.60;25.60;;;;;;5100348;28;20031;-94
2022/03/20 09:49:06;;;;;;;10.73;4.55;;;24.70;25.50;;;;;;5106023;28;20008;-94
2022/03/20 09:51:34;;;;;;;5.75;4.55;;;24.70;25.10;;;;;;5089526;28;20146;-88
2022/03/20 09:54:00;;;;;;;6.60;4.82;;;24.30;25.20;;;;;;5072513;28;20437;-87
2022/03/20 09:56:27;;;;;;;8.53;3.30;;;24.40;24.90;;;;;;5070577;28;20065;-83
2022/03/20 09:58:52;;;;;;;6.53;4.27;;;24.30;24.40;;;;;;5055072;28;20114;-88
2022/03/20 10:01:18;;;;;;;6.80;3.28;;;24.50;24.30;;;;;;5076412;28;20071;-90
2022/03/20 10:03:46;;;;;;;8.98;4.15;;;24.40;24.30;;;;;;5086080;28;20035;-87
2022/03/20 10:06:17;;;;;;;7.45;3.38;;;24.10;24.30;;;;;;5069220;28;20021;-90
2022/03/20 10:08:55;;;;;;;4.28;2.80;;;24.00;24.50;;;;;;5082701;28;20045;-90
2022/03/20 10:11:21;;;;;;;6.47;2.90;;;24.00;24.20;;;;;;5083970;28;20039;-90
2022/03/20 10:14:08;;;;;;;6.00;3.33;;;23.80;24.00;;;;;;5039665;28;1305549;-90
2022/03/20 10:16:39;;;;;;;8.68;3.03;;;23.60;24.00;;;;;;5070659;28;20072;-90
2022/03/20 10:19:23;;;;;;;4.50;2.95;;;23.20;23.60;;;;;;5059005;28;20025;-90
2022/03/20 10:22:05;;;;;;;4.28;2.90;;;23.40;24.10;;;;;;5075875;28;20071;-88
2022/03/20 10:24:32;;;;;;;4.78;2.50;;;24.40;23.90;;;;;;5076850;28;20067;-90
2022/03/20 10:27:01;;;;;;;7.45;3.05;;;25.00;22.70;;;;;;5078522;28;20035;-87
2022/03/20 10:29:28;;;;;;;8.80;2.60;;;23.50;23.00;;;;;;5077603;28;20557;-86
2022/03/20 10:31:55;;;;;;;;;;;21.40;24.00;;;;;;5071776;28;20032;-86
2022/03/20 10:34:23;;;;;;;4.03;2.17;;;19.50;24.80;;;;;;5073432;28;19908;-87
2022/03/20 10:36:50;;;;;;;7.13;3.03;;;17.80;26.00;;;;;;5049166;28;20115;-87
2022/03/20 10:39:27;;;;;;;9.15;2.72;;;16.20;27.00;;;;;;5069052;28;20494;-84
2022/03/20 10:41:54;;;;;;;8.18;2.42;;;15.30;27.80;;;;;;5079610;28;20039;-83
2022/03/20 10:44:25;;;;;;;9.90;2.78;;;14.60;28.30;;;;;;5070825;28;20026;-79
2022/03/20 10:47:04;;;;;;;4.43;2.42;;;13.80;28.70;;;;;;5069979;28;20047;-78
2022/03/20 10:49:32;;;;;;;6.15;2.67;;;13.40;28.50;;;;;;5062575;28;20031;-76
2022/03/20 10:52:02;;;;;;;8.13;2.20;;;12.90;28.70;;;;;;5090609;28;20040;-78
2022/03/20 10:54:42;;;;;;;5.03;2.25;;;12.50;28.80;;;;;;5090336;28;20044;-77
2022/03/20 10:57:08;;;;;;;6.93;2.42;;;12.20;29.10;;;;;;5072912;28;20078;-78
2022/03/20 10:59:34;;;;;;;9.43;2.33;;;12.00;29.20;;;;;;5091238;28;20020;-78
2022/03/20 11:02:05;;;;;;;4.63;2.17;;;11.90;29.40;;;;;;5090782;28;20031;-79
2022/03/20 11:04:32;;;;;;;3.97;1.60;;;11.80;29.60;;;;;;5082168;28;20478;-79
2022/03/20 11:07:07;;;;;;;3.83;1.80;;;11.60;29.90;;;;;;5091019;28;20064;-79
2022/03/20 11:09:33;;;;;;;4.28;2.28;;;11.40;30.00;;;;;;5086608;28;20049;-79
2022/03/20 11:12:03;;;;;;;4.88;1.88;;;11.20;30.30;;;;;;5095879;28;20065;-78
2022/03/20 11:14:29;;;;;;;7.88;2.30;;;11.00;30.70;;;;;;5079396;28;20044;-78
2022/03/20 11:17:01;;;;;;;4.60;2.22;;;11.00;31.20;;;;;;5074628;28;20093;-79
2022/03/20 11:19:37;;;;;;;7.38;2.22;;;11.00;31.40;;;;;;5075062;28;20409;-81
2022/03/20 11:22:12;;;;;;;4.13;1.80;;;11.00;31.90;;;;;;5089679;28;20099;-76
2022/03/20 11:24:42;;;;;;;7.95;2.30;;;10.90;32.20;;;;;;5094620;28;20111;-77
2022/03/20 11:27:11;;;;;;;7.80;2.75;;;10.80;32.70;;;;;;5075615;28;20084;-77
2022/03/20 11:30:04;;;;;;;5.55;2.00;;;10.80;32.60;;;;;;5094496;28;20027;-78
2022/03/20 11:32:30;;;;;;;6.68;1.75;;;10.90;32.90;;;;;;5094252;28;20469;-77
2022/03/20 11:34:57;;;;;;;7.35;2.45;;;10.80;33.40;;;;;;5076016;28;20039;-77
2022/03/20 11:37:40;;;;;;;5.95;1.98;;;10.70;33.60;;;;;;5093537;28;20039;-80
2022/03/20 11:40:13;;;;;;;8.50;2.22;;;10.60;34.10;;;;;;5091326;28;20016;-78
2022/03/20 11:42:41;;;;;;;5.70;2.42;;;10.70;34.80;;;;;;5077386;28;20440;-79
2022/03/20 11:45:06;;;;;;;4.20;2.22;;;10.80;35.00;;;;;;5097934;28;20024;-79
2022/03/20 11:47:41;;;;;;;5.10;3.15;;;10.80;35.00;;;;;;5076675;28;20462;-79
2022/03/20 11:50:23;;;;;;;6.35;2.80;;;10.70;35.50;;;;;;5094166;28;20042;-77
2022/03/20 11:52:58;;;;;;;4.78;2.17;;;10.70;35.90;;;;;;5094229;28;20053;-79
2022/03/20 11:55:24;;;;;;;5.43;2.55;;;10.70;36.20;;;;;;5094504;28;20016;-79
2022/03/20 11:57:50;;;;;;;4.78;2.28;;;10.60;36.50;;;;;;5093974;28;20118;-80
2022/03/20 12:00:19;;;;;;;7.88;2.85;;;10.50;36.70;;;;;;5076062;28;20419;-77
2022/03/20 12:02:56;;;;;;;5.10;2.67;;;10.50;36.90;;;;;;5093912;28;20027;-77
2022/03/20 12:05:33;;;;;;;10.00;3.03;;;10.50;37.30;;;;;;5075679;28;20008;-76
2022/03/20 12:08:08;;;;;;;;;;;10.50;37.60;;;;;;5094174;28;20263;-80
2022/03/20 12:11:10;;;;;;;6.47;1.92;;;10.40;37.50;;;;;;5072172;28;19912;-79
2022/03/20 12:13:47;;;;;;;7.45;3.00;;;10.30;38.30;;;;;;4991983;28;20029;-79
2022/03/20 12:16:32;;;;;;;7.88;2.33;;;10.30;38.60;;;;;;5062736;28;20048;-76
2022/03/20 12:19:11;;;;;;;5.30;2.42;;;10.20;38.80;;;;;;5072292;28;20020;-76
2022/03/20 12:21:57;;;;;;;7.50;2.22;;;10.20;39.30;;;;;;5091455;28;20028;-77
2022/03/20 12:24:54;;;;;;;3.30;2.20;;;10.20;39.60;;;;;;5093351;28;20099;-77
2022/03/20 12:29:49;;;;;;;4.50;2.22;;;10.30;39.90;;;;;;5093530;28;20067;-77
2022/03/20 12:32:16;;;;;;;7.00;2.97;;;10.40;39.90;;;;;;5093185;28;20016;-77
2022/03/20 12:34:43;;;;;;;5.47;2.70;;;10.70;39.80;;;;;;5111864;28;20024;-77
2022/03/20 12:37:49;;;;;;;7.75;2.67;;;11.00;39.40;;;;;;5070868;28;20036;-76
2022/03/20 12:40:20;;;;;;;4.72;2.63;;;11.10;38.90;;;;;;5092191;28;20070;-76
2022/03/20 12:43:10;;;;;;;8.18;2.65;;;11.00;39.00;;;;;;5092745;28;20108;-76
2022/03/20 12:45:41;;;;;;;6.60;2.22;;;10.90;39.40;;;;;;5080017;28;20032;-76
2022/03/20 12:48:10;;;;;;;4.35;2.83;;;10.70;39.80;;;;;;5083298;28;20546;-75
2022/03/20 12:50:38;;;;;;;6.05;3.35;;;10.70;39.90;;;;;;5092744;28;20484;-78
2022/03/20 12:53:09;;;;;;;5.68;2.85;;;10.60;40.30;;;;;;5092896;28;20042;-76
2022/03/20 12:55:37;;;;;;;5.78;3.00;;;10.60;40.20;;;;;;5092419;28;20085;-77
2022/03/20 12:58:04;;;;;;;7.55;2.58;;;10.50;40.50;;;;;;5092355;28;20103;-76
2022/03/20 13:00:32;;;;;;;8.00;3.63;;;10.50;40.70;;;;;;5092676;28;20017;-77
2022/03/20 13:03:08;;;;;;;4.95;2.75;;;10.50;40.80;;;;;;5062843;28;20036;-75
2022/03/20 13:05:45;;;;;;;6.13;3.10;;;10.40;41.10;;;;;;5082912;28;20099;-78
2022/03/20 13:08:18;;;;;;;4.13;2.10;;;10.40;41.20;;;;;;5092422;28;20487;-76
2022/03/20 13:10:44;;;;;;;4.28;2.97;;;10.40;41.40;;;;;;5074001;28;20039;-76
2022/03/20 13:13:12;;;;;;;5.35;2.78;;;10.50;41.60;;;;;;5092522;28;20473;-77
2022/03/20 13:15:40;;;;;;;8.43;3.58;;;10.40;41.60;;;;;;5092573;28;20036;-78
2022/03/20 13:18:07;;;;;;;;;;;10.40;41.80;;;;;;5092696;28;20119;-77
2022/03/20 13:20:41;;;;;;;5.22;2.85;;;10.30;41.50;;;;;;5064744;28;19917;-76
2022/03/20 13:23:25;;;;;;;13.13;3.78;;;10.30;42.50;;;;;;5072472;28;20505;-79
2022/03/20 13:25:59;;;;;;;4.72;2.28;;;10.20;42.60;;;;;;5071950;28;20104;-76
2022/03/20 13:28:33;;;;;;;8.50;3.83;;;10.10;42.80;;;;;;5072083;28;20083;-75
2022/03/20 13:31:19;;;;;;;7.55;3.70;;;10.10;43.20;;;;;;5077456;28;20536;-75
2022/03/20 13:34:00;;;;;;;4.65;2.63;;;10.00;43.20;;;;;;5073961;28;20032;-75